createdAt,value
2019-03-20T00:00:34.167Z,99.99
2019-03-20T00:01:43.326Z,99.99
2019-03-20T00:02:34.109Z,99.99
2019-03-20T00:03:34.092Z,99.99
2019-03-20T00:04:33.826Z,99.99
2019-03-20T00:05:34.055Z,99.99
2019-03-20T00:06:34.190Z,99.99
2019-03-20T00:07:34.030Z,99.99
2019-03-20T00:08:33.998Z,99.99
2019-03-20T00:09:33.983Z,99.99
2019-03-20T00:10:33.721Z,99.99
2019-03-20T00:16:11.207Z,99.99
2019-03-20T00:16:56.530Z,99.99
2019-03-20T00:22:25.956Z,99.99
2019-03-20T00:23:25.943Z,99.99
2019-03-20T00:24:25.917Z,99.99
2019-03-20T00:25:25.906Z,99.99
2019-03-20T00:26:25.890Z,99.99
2019-03-20T00:27:25.874Z,99.99
2019-03-20T00:28:25.848Z,99.99
2019-03-20T00:29:25.832Z,99.99
2019-03-20T00:30:25.825Z,99.99
2019-03-20T00:31:25.795Z,99.99
2019-03-20T00:32:25.531Z,99.99
2019-03-20T00:33:25.758Z,99.99
2019-03-20T00:34:25.761Z,99.99
2019-03-20T00:35:25.726Z,99.99
2019-03-20T00:36:25.708Z,99.99
2019-03-20T00:37:25.690Z,99.99
2019-03-20T00:38:25.670Z,99.99
2019-03-20T00:39:25.650Z,99.99
2019-03-20T00:40:25.713Z,99.99
2019-03-20T00:41:25.620Z,99.99
2019-03-20T00:42:25.353Z,99.99
2019-03-20T00:43:25.583Z,99.99
2019-03-20T00:44:25.562Z,99.99
2019-03-20T00:45:25.554Z,99.99
2019-03-20T00:46:25.291Z,99.99
2019-03-20T00:47:25.510Z,99.99
2019-03-20T00:48:25.496Z,99.99
2019-03-20T00:49:25.477Z,99.99
2019-03-20T00:50:25.459Z,99.99
2019-03-20T00:51:25.440Z,99.99
2019-03-20T00:52:25.421Z,99.99
2019-03-20T00:53:25.408Z,99.99
2019-03-20T00:54:25.389Z,99.99
2019-03-20T00:55:25.369Z,99.99
2019-03-20T00:56:25.351Z,99.99
2019-03-20T00:57:25.332Z,99.99
2019-03-20T00:58:25.315Z,99.99
2019-03-20T00:59:25.301Z,99.99
2019-03-20T01:00:25.287Z,99.99
2019-03-20T01:01:25.266Z,99.99
2019-03-20T01:02:25.249Z,99.99
2019-03-20T01:03:25.225Z,99.99
2019-03-20T01:04:25.207Z,99.99
2019-03-20T01:05:25.193Z,99.99
2019-03-20T01:06:25.171Z,99.99
2019-03-20T01:07:25.154Z,99.99
2019-03-20T01:08:25.136Z,99.99
2019-03-20T01:09:25.123Z,99.99
2019-03-20T01:10:25.109Z,99.99
2019-03-20T01:11:25.086Z,99.99
2019-03-20T01:12:25.063Z,99.99
2019-03-20T01:13:25.044Z,99.99
2019-03-20T01:14:25.032Z,99.99
2019-03-20T01:15:25.012Z,99.99
2019-03-20T01:16:24.992Z,99.99
2019-03-20T01:17:24.981Z,99.99
2019-03-20T01:18:25.048Z,99.99
2019-03-20T01:19:24.940Z,99.99
2019-03-20T01:20:24.927Z,99.99
2019-03-20T01:21:24.900Z,99.99
2019-03-20T01:22:24.888Z,99.99
2019-03-20T01:23:24.864Z,99.99
2019-03-20T01:24:24.843Z,99.99
2019-03-20T01:25:24.831Z,99.99
2019-03-20T01:26:24.567Z,99.99
2019-03-20T01:27:24.794Z,99.99
2019-03-20T01:28:24.774Z,99.99
2019-03-20T01:29:24.756Z,99.99
2019-03-20T01:30:24.734Z,99.99
2019-03-20T01:31:24.723Z,99.99
2019-03-20T01:32:24.702Z,99.99
2019-03-20T01:33:24.684Z,99.99
2019-03-20T01:34:24.664Z,99.99
2019-03-20T01:35:26.622Z,99.99
2019-03-20T01:36:24.635Z,99.99
2019-03-20T01:37:24.363Z,99.99
2019-03-20T01:38:24.594Z,99.99
2019-03-20T01:39:24.576Z,99.99
2019-03-20T01:40:24.552Z,99.99
2019-03-20T01:41:24.537Z,99.99
2019-03-20T01:42:24.515Z,99.99
2019-03-20T01:43:24.507Z,99.99
2019-03-20T01:44:24.232Z,99.99
2019-03-20T01:45:24.461Z,99.99
2019-03-20T01:46:24.443Z,99.99
2019-03-20T01:47:24.426Z,99.99
2019-03-20T01:48:24.406Z,99.99
2019-03-20T01:49:24.383Z,99.99
2019-03-20T01:50:24.368Z,99.99
2019-03-20T01:51:24.353Z,99.99
2019-03-20T01:52:24.332Z,99.99
2019-03-20T01:53:24.308Z,99.99
2019-03-20T01:54:24.290Z,99.99
2019-03-20T01:55:24.278Z,99.99
2019-03-20T01:56:24.257Z,99.99
2019-03-20T01:57:24.240Z,99.99
2019-03-20T01:58:24.217Z,99.99
2019-03-20T01:59:24.200Z,99.99
2019-03-20T02:00:24.182Z,99.99
2019-03-20T02:01:24.163Z,99.99
2019-03-20T02:02:24.147Z,99.99
2019-03-20T02:03:23.874Z,99.99
2019-03-20T02:04:24.104Z,99.99
2019-03-20T02:05:34.599Z,99.99
2019-03-20T02:06:24.080Z,99.99
2019-03-20T02:07:24.046Z,99.99
2019-03-20T02:08:24.030Z,99.99
2019-03-20T02:09:24.014Z,99.99
2019-03-20T02:10:23.993Z,99.99
2019-03-20T02:11:23.969Z,99.99
2019-03-20T02:12:23.958Z,99.99
2019-03-20T02:13:23.938Z,99.99
2019-03-20T02:14:23.914Z,99.99
2019-03-20T02:15:23.894Z,99.99
2019-03-20T02:16:23.633Z,99.99
2019-03-20T02:17:23.612Z,99.99
2019-03-20T02:18:23.839Z,99.99
2019-03-20T02:19:23.818Z,99.99
2019-03-20T02:20:23.806Z,99.99
2019-03-20T02:21:23.780Z,99.99
2019-03-20T02:22:23.762Z,99.99
2019-03-20T02:23:23.741Z,99.99
2019-03-20T02:24:23.728Z,99.99
2019-03-20T02:25:23.458Z,99.99
2019-03-20T02:26:23.691Z,99.99
2019-03-20T02:27:23.668Z,99.99
2019-03-20T02:28:23.647Z,99.99
2019-03-20T02:29:23.630Z,99.99
2019-03-20T02:30:23.615Z,99.99
2019-03-20T02:31:23.591Z,99.99
2019-03-20T02:32:23.338Z,99.99
2019-03-20T02:33:23.580Z,99.99
2019-03-20T02:34:23.549Z,99.99
2019-03-20T02:35:23.518Z,99.99
2019-03-20T02:36:23.499Z,99.99
2019-03-20T02:37:23.238Z,99.99
2019-03-20T02:38:23.462Z,99.99
2019-03-20T02:39:23.440Z,99.99
2019-03-20T02:40:23.418Z,99.99
2019-03-20T02:41:23.403Z,99.99
2019-03-20T02:42:23.381Z,99.99
2019-03-20T02:43:23.365Z,99.99
2019-03-20T02:44:23.343Z,99.99
2019-03-20T02:45:23.327Z,99.99
2019-03-20T02:46:23.313Z,99.99
2019-03-20T02:47:23.298Z,99.99
2019-03-20T02:48:23.268Z,99.99
2019-03-20T02:49:23.247Z,99.99
2019-03-20T02:50:23.228Z,99.99
2019-03-20T02:51:23.208Z,99.99
2019-03-20T02:52:23.202Z,99.99
2019-03-20T02:53:23.170Z,99.99
2019-03-20T02:54:23.171Z,99.99
2019-03-20T02:55:23.140Z,99.99
2019-03-20T02:56:23.114Z,99.99
2019-03-20T02:57:23.096Z,99.99
2019-03-20T02:58:23.079Z,99.99
2019-03-20T02:59:23.052Z,99.99
2019-03-20T03:00:23.065Z,99.99
2019-03-20T03:01:23.022Z,99.99
2019-03-20T03:02:22.997Z,99.99
2019-03-20T03:03:22.979Z,99.99
2019-03-20T03:04:22.964Z,99.99
2019-03-20T03:05:22.945Z,99.99
2019-03-20T03:06:22.922Z,99.99
2019-03-20T03:07:22.922Z,99.99
2019-03-20T03:08:22.879Z,99.99
2019-03-20T03:09:23.010Z,99.99
2019-03-20T03:10:22.850Z,99.99
2019-03-20T03:11:22.839Z,99.99
2019-03-20T03:12:22.812Z,99.99
2019-03-20T03:13:22.788Z,99.99
2019-03-20T03:14:22.771Z,99.99
2019-03-20T03:15:22.751Z,99.99
2019-03-20T03:16:22.730Z,99.99
2019-03-20T03:17:22.716Z,99.99
2019-03-20T03:18:22.689Z,99.99
2019-03-20T03:19:22.667Z,99.99
2019-03-20T03:20:22.646Z,99.99
2019-03-20T03:21:22.645Z,99.99
2019-03-20T03:22:22.610Z,99.99
2019-03-20T03:23:22.347Z,99.99
2019-03-20T03:24:22.594Z,99.99
2019-03-20T03:25:22.605Z,99.99
2019-03-20T03:26:22.535Z,99.99
2019-03-20T03:27:22.520Z,99.99
2019-03-20T03:28:22.500Z,99.99
2019-03-20T03:29:22.477Z,99.99
2019-03-20T03:30:22.471Z,99.99
2019-03-20T03:31:22.449Z,99.99
2019-03-20T03:32:22.417Z,99.99
2019-03-20T03:33:22.405Z,99.99
2019-03-20T03:34:22.394Z,99.99
2019-03-20T03:35:22.925Z,99.99
2019-03-20T03:36:24.205Z,99.99
2019-03-20T03:37:22.318Z,99.99
2019-03-20T03:38:22.308Z,99.99
2019-03-20T03:39:22.289Z,99.99
2019-03-20T03:40:22.274Z,99.99
2019-03-20T03:41:22.244Z,99.99
2019-03-20T03:42:22.224Z,99.99
2019-03-20T03:43:24.143Z,99.56
2019-03-20T03:44:22.183Z,98.71
2019-03-20T03:45:22.199Z,99.08
2019-03-20T03:46:21.928Z,98.52
2019-03-20T03:47:22.147Z,99.08
2019-03-20T03:48:22.112Z,98.8
2019-03-20T03:49:22.096Z,98.8
2019-03-20T03:50:22.092Z,99.65
2019-03-20T03:51:22.049Z,99.46
2019-03-20T03:52:22.030Z,99.75
2019-03-20T03:53:22.017Z,99.99
2019-03-20T03:54:21.985Z,99.99
2019-03-20T03:55:21.974Z,99.99
2019-03-20T03:56:21.947Z,99.99
2019-03-20T03:57:21.945Z,99.99
2019-03-20T03:58:21.924Z,99.99
2019-03-20T03:59:21.910Z,99.99
2019-03-20T04:00:21.887Z,99.99
2019-03-20T04:01:21.852Z,99.56
2019-03-20T04:02:21.854Z,98.71
2019-03-20T04:03:21.826Z,98.33
2019-03-20T04:04:21.788Z,98.33
2019-03-20T04:05:21.793Z,97.29
2019-03-20T04:06:34.776Z,97.01
2019-03-20T04:07:23.585Z,96.35
2019-03-20T04:08:21.732Z,95.5
2019-03-20T04:09:21.698Z,95.12
2019-03-20T04:10:21.675Z,94.32
2019-03-20T04:11:21.650Z,94.56
2019-03-20T04:12:21.637Z,94.56
2019-03-20T04:13:21.369Z,94.18
2019-03-20T04:14:21.620Z,94.18
2019-03-20T04:15:21.577Z,93.61
2019-03-20T04:16:21.556Z,93.42
2019-03-20T04:17:21.585Z,93.42
2019-03-20T04:18:21.523Z,93.8
2019-03-20T04:19:21.499Z,93.61
2019-03-20T04:20:21.501Z,93.61
2019-03-20T04:21:21.486Z,93.8
2019-03-20T04:22:21.438Z,93.23
2019-03-20T04:23:21.416Z,93.51
2019-03-20T04:24:21.405Z,93.8
2019-03-20T04:25:21.383Z,93.32
2019-03-20T04:26:21.358Z,93.7
2019-03-20T04:27:21.352Z,93.7
2019-03-20T04:28:21.318Z,93.7
2019-03-20T04:29:21.326Z,93.23
2019-03-20T04:30:21.286Z,94.18
2019-03-20T04:31:21.259Z,94.18
2019-03-20T04:32:21.236Z,94.18
2019-03-20T04:33:21.237Z,93.89
2019-03-20T04:34:21.239Z,94.74
2019-03-20T04:35:21.181Z,94.65
2019-03-20T04:36:21.163Z,95.12
2019-03-20T04:37:21.143Z,94.93
2019-03-20T04:38:21.130Z,95.59
2019-03-20T04:39:21.101Z,95.78
2019-03-20T04:40:21.084Z,96.25
2019-03-20T04:41:21.058Z,96.06
2019-03-20T04:42:21.053Z,96.73
2019-03-20T04:43:21.024Z,97.05
2019-03-20T04:44:20.998Z,97.67
2019-03-20T04:45:20.985Z,97.96
2019-03-20T04:46:20.963Z,97.91
2019-03-20T04:47:20.941Z,97.72
2019-03-20T04:48:20.923Z,97.43
2019-03-20T04:49:20.901Z,97.24
2019-03-20T04:50:20.880Z,97.05
2019-03-20T04:51:20.861Z,96.11
2019-03-20T04:52:20.843Z,95.92
2019-03-20T04:53:20.821Z,95.17
2019-03-20T04:54:20.802Z,95.17
2019-03-20T04:55:20.783Z,95.64
2019-03-20T04:56:20.766Z,95.83
2019-03-20T04:57:20.745Z,95.83
2019-03-20T04:58:20.723Z,95.73
2019-03-20T04:59:20.457Z,95.54
2019-03-20T05:00:20.690Z,95.92
2019-03-20T05:01:20.664Z,95.54
2019-03-20T05:02:20.645Z,94.89
2019-03-20T05:03:20.624Z,94.32
2019-03-20T05:04:20.603Z,93.94
2019-03-20T05:05:20.593Z,93.75
2019-03-20T05:06:20.563Z,92.99
2019-03-20T05:07:20.543Z,92.33
2019-03-20T05:08:20.528Z,92.33
2019-03-20T05:09:20.509Z,92.61
2019-03-20T05:10:20.487Z,92.52
2019-03-20T05:11:20.217Z,92.52
2019-03-20T05:12:20.447Z,92.43
2019-03-20T05:13:20.424Z,91.96
2019-03-20T05:14:20.411Z,92.24
2019-03-20T05:15:20.389Z,91.96
2019-03-20T05:16:20.118Z,91.96
2019-03-20T05:17:20.407Z,91.96
2019-03-20T05:18:20.325Z,91.96
2019-03-20T05:19:20.305Z,91.86
2019-03-20T05:20:20.292Z,92.43
2019-03-20T05:21:20.269Z,91.58
2019-03-20T05:22:20.003Z,91.3
2019-03-20T05:23:20.230Z,91.11
2019-03-20T05:24:20.212Z,90.73
2019-03-20T05:25:20.185Z,90.82
2019-03-20T05:26:20.178Z,90.64
2019-03-20T05:27:20.150Z,90.3
2019-03-20T05:28:20.126Z,90.16
2019-03-20T05:29:20.110Z,90.3
2019-03-20T05:30:20.107Z,89.88
2019-03-20T05:31:19.821Z,89.73
2019-03-20T05:32:22.127Z,90.45
2019-03-20T05:33:20.096Z,90.59
2019-03-20T05:34:19.768Z,90.45
2019-03-20T05:35:19.998Z,89.88
2019-03-20T05:36:19.969Z,90.02
2019-03-20T05:37:19.949Z,90.11
2019-03-20T05:38:19.929Z,90.02
2019-03-20T05:39:19.910Z,90.11
2019-03-20T05:40:19.945Z,90.02
2019-03-20T05:41:19.870Z,90.49
2019-03-20T05:42:19.602Z,90.4
2019-03-20T05:43:19.830Z,90.96
2019-03-20T05:44:19.810Z,90.77
2019-03-20T05:45:19.791Z,91.06
2019-03-20T05:46:19.769Z,91.44
2019-03-20T05:47:19.750Z,91.63
2019-03-20T05:48:19.730Z,91.82
2019-03-20T05:49:19.471Z,92.57
2019-03-20T05:50:19.691Z,92.38
2019-03-20T05:51:19.677Z,93.04
2019-03-20T05:52:19.650Z,93.51
2019-03-20T05:53:19.633Z,92.94
2019-03-20T05:54:19.611Z,93.51
2019-03-20T05:55:19.593Z,93.61
2019-03-20T05:56:19.575Z,93.51
2019-03-20T05:57:19.565Z,93.89
2019-03-20T05:58:19.537Z,94.27
2019-03-20T05:59:19.514Z,94.37
2019-03-20T06:00:19.493Z,94.74
2019-03-20T06:01:19.480Z,94.84
2019-03-20T06:02:19.459Z,95.03
2019-03-20T06:03:19.439Z,94.84
2019-03-20T06:04:19.413Z,95.31
2019-03-20T06:05:19.401Z,94.93
2019-03-20T06:06:19.374Z,94.84
2019-03-20T06:07:24.135Z,95.4
2019-03-20T06:08:19.332Z,95.68
2019-03-20T06:09:19.318Z,95.21
2019-03-20T06:10:19.321Z,95.59
2019-03-20T06:11:19.275Z,95.97
2019-03-20T06:12:19.258Z,95.87
2019-03-20T06:13:19.235Z,96.16
2019-03-20T06:14:19.217Z,96.16
2019-03-20T06:15:19.197Z,95.21
2019-03-20T06:16:19.185Z,95.78
2019-03-20T06:17:19.160Z,96.25
2019-03-20T06:18:19.138Z,96.82
2019-03-20T06:19:19.120Z,96.16
2019-03-20T06:20:19.108Z,96.73
2019-03-20T06:21:19.081Z,98.24
2019-03-20T06:22:19.063Z,98.24
2019-03-20T06:23:19.053Z,98.8
2019-03-20T06:24:18.777Z,99.71
2019-03-20T06:25:21.247Z,99.52
2019-03-20T06:26:18.986Z,99.89
2019-03-20T06:27:18.964Z,99.99
2019-03-20T06:28:18.946Z,99.99
2019-03-20T06:29:20.139Z,99.99
2019-03-20T06:30:18.903Z,99.99
2019-03-20T06:31:21.269Z,99.99
2019-03-20T06:32:18.868Z,99.99
2019-03-20T06:33:18.846Z,99.99
2019-03-20T06:34:18.831Z,99.99
2019-03-20T06:35:18.811Z,99.99
2019-03-20T06:36:18.546Z,99.99
2019-03-20T06:37:18.773Z,99.99
2019-03-20T06:38:18.754Z,99.99
2019-03-20T06:39:18.732Z,99.99
2019-03-20T06:40:18.722Z,99.99
2019-03-20T06:41:18.697Z,99.99
2019-03-20T06:42:18.674Z,99.99
2019-03-20T06:43:18.667Z,99.99
2019-03-20T06:44:18.638Z,99.99
2019-03-20T06:45:18.620Z,99.99
2019-03-20T06:46:18.603Z,99.99
2019-03-20T06:47:18.580Z,99.99
2019-03-20T06:48:18.313Z,99.99
2019-03-20T06:49:18.542Z,99.99
2019-03-20T06:50:18.280Z,99.99
2019-03-20T06:51:18.504Z,99.99
2019-03-20T06:52:18.487Z,99.99
2019-03-20T06:53:18.473Z,99.99
2019-03-20T06:54:18.450Z,99.99
2019-03-20T06:55:18.199Z,99.99
2019-03-20T06:56:18.414Z,99.99
2019-03-20T06:57:18.393Z,99.99
2019-03-20T06:58:18.374Z,99.99
2019-03-20T06:59:18.113Z,99.99
2019-03-20T07:00:18.340Z,99.99
2019-03-20T07:01:18.324Z,99.99
2019-03-20T07:02:18.301Z,99.99
2019-03-20T07:03:18.284Z,99.99
2019-03-20T07:04:18.264Z,99.99
2019-03-20T07:05:18.244Z,99.99
2019-03-20T07:06:18.233Z,99.99
2019-03-20T07:07:18.207Z,99.99
2019-03-20T07:08:18.199Z,99.99
2019-03-20T07:09:18.179Z,99.99
2019-03-20T07:10:18.152Z,99.99
2019-03-20T07:11:18.136Z,99.99
2019-03-20T07:12:17.872Z,99.99
2019-03-20T07:13:18.102Z,99.99
2019-03-20T07:14:18.080Z,99.99
2019-03-20T07:15:18.063Z,99.99
2019-03-20T07:16:18.049Z,99.99
2019-03-20T07:17:18.029Z,99.99
2019-03-20T07:18:18.008Z,99.99
2019-03-20T07:19:17.990Z,99.99
2019-03-20T07:20:17.976Z,99.99
2019-03-20T07:21:18.819Z,99.99
2019-03-20T07:22:17.938Z,99.99
2019-03-20T07:23:17.923Z,99.99
2019-03-20T07:24:17.932Z,99.99
2019-03-20T07:25:17.883Z,99.99
2019-03-20T07:26:17.870Z,99.99
2019-03-20T07:27:17.849Z,99.99
2019-03-20T07:28:17.829Z,99.99
2019-03-20T07:29:17.813Z,99.99
2019-03-20T07:30:17.792Z,99.99
2019-03-20T07:31:18.449Z,99.99
2019-03-20T07:32:17.761Z,99.99
2019-03-20T07:33:17.744Z,99.99
2019-03-20T07:34:17.722Z,99.99
2019-03-20T07:35:17.704Z,99.99
2019-03-20T07:36:17.690Z,99.99
2019-03-20T07:37:17.675Z,99.99
2019-03-20T07:38:17.413Z,99.99
2019-03-20T07:39:17.634Z,99.99
2019-03-20T07:40:17.622Z,99.99
2019-03-20T07:41:17.353Z,99.99
2019-03-20T07:42:17.586Z,99.99
2019-03-20T07:43:17.573Z,99.99
2019-03-20T07:44:17.548Z,99.99
2019-03-20T07:45:17.537Z,99.99
2019-03-20T07:46:17.534Z,99.99
2019-03-20T07:47:17.509Z,99.99
2019-03-20T07:48:24.473Z,99.99
2019-03-20T07:49:17.460Z,99.99
2019-03-20T07:50:17.444Z,99.99
2019-03-20T07:51:17.435Z,99.99
2019-03-20T07:52:17.410Z,99.99
2019-03-20T07:53:17.481Z,99.99
2019-03-20T07:54:17.380Z,99.99
2019-03-20T07:55:17.367Z,99.99
2019-03-20T07:56:17.344Z,99.99
2019-03-20T07:57:17.332Z,99.99
2019-03-20T07:58:17.305Z,99.99
2019-03-20T07:59:17.288Z,99.99
2019-03-20T08:00:17.026Z,99.99
2019-03-20T08:01:17.258Z,99.99
2019-03-20T08:02:17.240Z,99.99
2019-03-20T08:03:17.229Z,99.99
2019-03-20T08:04:17.206Z,99.99
2019-03-20T08:05:17.190Z,99.99
2019-03-20T08:06:17.178Z,99.99
2019-03-20T08:07:17.155Z,99.99
2019-03-20T08:08:17.139Z,99.99
2019-03-20T08:09:17.177Z,99.99
2019-03-20T08:10:16.863Z,99.99
2019-03-20T08:11:17.092Z,99.99
2019-03-20T08:12:17.079Z,98.16
2019-03-20T08:13:17.058Z,97.11
2019-03-20T08:14:17.041Z,95.5
2019-03-20T08:15:17.027Z,93.27
2019-03-20T08:16:17.010Z,90.91
2019-03-20T08:17:16.746Z,89.86
2019-03-20T08:18:16.975Z,89.29
2019-03-20T08:19:16.959Z,89.86
2019-03-20T08:20:16.941Z,87.97
2019-03-20T08:21:16.927Z,85.97
2019-03-20T08:22:16.914Z,85.03
2019-03-20T08:23:16.895Z,85.22
2019-03-20T08:24:16.877Z,85.97
2019-03-20T08:25:16.862Z,84.55
2019-03-20T08:26:16.847Z,85.22
2019-03-20T08:27:16.831Z,79.76
2019-03-20T08:28:16.817Z,78.34
2019-03-20T08:29:16.799Z,80.24
2019-03-20T08:30:16.786Z,84.69
2019-03-20T08:31:16.771Z,82.7
2019-03-20T08:32:16.752Z,81.18
2019-03-20T08:33:16.742Z,78.72
2019-03-20T08:34:16.724Z,76.06
2019-03-20T08:35:16.706Z,75.21
2019-03-20T08:36:16.695Z,75.31
2019-03-20T08:37:16.681Z,75.31
2019-03-20T08:38:21.173Z,73.79
2019-03-20T08:39:16.703Z,71.55
2019-03-20T08:40:16.632Z,71.6
2019-03-20T08:41:16.620Z,73.88
2019-03-20T08:42:16.606Z,74.73
2019-03-20T08:43:16.584Z,73.54
2019-03-20T08:44:16.572Z,73.07
2019-03-20T08:45:16.560Z,72.49
2019-03-20T08:46:16.545Z,72.78
2019-03-20T08:47:16.527Z,71.92
2019-03-20T08:48:16.511Z,71.92
2019-03-20T08:49:16.497Z,70.78
2019-03-20T08:50:16.501Z,68.98
2019-03-20T08:51:16.464Z,69.17
2019-03-20T08:52:16.453Z,70.21
2019-03-20T08:53:16.439Z,70.98
2019-03-20T08:54:16.480Z,68.7
2019-03-20T08:55:16.405Z,67.75
2019-03-20T08:56:16.391Z,66.14
2019-03-20T08:57:16.376Z,64.62
2019-03-20T08:58:16.464Z,63.39
2019-03-20T08:59:18.113Z,63.1
2019-03-20T09:00:16.340Z,63.57
2019-03-20T09:01:16.084Z,64.52
2019-03-20T09:02:16.305Z,65.95
2019-03-20T09:03:16.291Z,66.52
2019-03-20T09:04:16.275Z,65.09
2019-03-20T09:05:16.262Z,64.05
2019-03-20T09:06:15.999Z,63.95
2019-03-20T09:07:16.228Z,63.01
2019-03-20T09:08:16.218Z,62.34
2019-03-20T09:09:16.203Z,62.34
2019-03-20T09:10:16.193Z,63.48
2019-03-20T09:11:16.173Z,65.19
2019-03-20T09:12:15.911Z,65.47
2019-03-20T09:13:16.202Z,65.47
2019-03-20T09:14:16.131Z,64.24
2019-03-20T09:15:16.117Z,62.43
2019-03-20T09:16:15.855Z,61.68
2019-03-20T09:17:16.092Z,61.87
2019-03-20T09:18:16.078Z,59.97
2019-03-20T09:19:16.059Z,60.53
2019-03-20T09:20:16.043Z,61.01
2019-03-20T09:21:16.032Z,60.92
2019-03-20T09:22:16.013Z,61.11
2019-03-20T09:23:15.999Z,61.11
2019-03-20T09:24:15.992Z,62.72
2019-03-20T09:25:15.725Z,61.58
2019-03-20T09:26:15.744Z,60.44
2019-03-20T09:27:15.943Z,59.05
2019-03-20T09:28:15.931Z,58.64
2019-03-20T09:29:21.114Z,58.58
2019-03-20T09:30:15.904Z,59.3
2019-03-20T09:31:15.884Z,59.52
2019-03-20T09:32:15.873Z,58.58
2019-03-20T09:33:15.877Z,57.62
2019-03-20T09:34:15.594Z,59.43
2019-03-20T09:35:15.834Z,59.14
2019-03-20T09:36:15.569Z,58.58
2019-03-20T09:37:15.802Z,59.43
2019-03-20T09:38:15.785Z,59.05
2019-03-20T09:39:15.925Z,60.1
2019-03-20T09:40:15.758Z,60.47
2019-03-20T09:41:15.497Z,60.47
2019-03-20T09:42:15.727Z,57.81
2019-03-20T09:43:15.719Z,57.43
2019-03-20T09:44:15.704Z,57.62
2019-03-20T09:45:15.688Z,57.43
2019-03-20T09:46:15.678Z,57.91
2019-03-20T09:47:15.656Z,58.48
2019-03-20T09:48:15.644Z,58.67
2019-03-20T09:49:15.629Z,59.33
2019-03-20T09:50:15.368Z,60.41
2019-03-20T09:51:15.601Z,60.22
2019-03-20T09:52:15.585Z,59.36
2019-03-20T09:53:15.578Z,57.84
2019-03-20T09:54:15.560Z,57.37
2019-03-20T09:55:15.543Z,56.32
2019-03-20T09:56:15.531Z,57.28
2019-03-20T09:57:15.517Z,57.65
2019-03-20T09:58:15.505Z,57.56
2019-03-20T09:59:15.487Z,55.09
2019-03-20T10:00:15.478Z,55.18
2019-03-20T10:01:15.461Z,56.13
2019-03-20T10:02:15.447Z,56.42
2019-03-20T10:03:15.436Z,55.47
2019-03-20T10:04:15.419Z,54.14
2019-03-20T10:05:15.407Z,54.52
2019-03-20T10:06:15.391Z,53.66
2019-03-20T10:07:15.381Z,53.47
2019-03-20T10:08:15.368Z,52.91
2019-03-20T10:09:15.353Z,52.72
2019-03-20T10:10:15.336Z,53.57
2019-03-20T10:11:15.329Z,54.14
2019-03-20T10:12:15.308Z,54.43
2019-03-20T10:13:15.297Z,53.57
2019-03-20T10:14:15.283Z,53.28
2019-03-20T10:15:15.269Z,53.76
2019-03-20T10:16:15.010Z,53.85
2019-03-20T10:17:17.267Z,53.85
2019-03-20T10:18:15.229Z,53.38
2019-03-20T10:19:15.212Z,54.05
2019-03-20T10:20:15.202Z,55.37
2019-03-20T10:21:15.185Z,57.18
2019-03-20T10:22:15.171Z,57.65
2019-03-20T10:23:15.166Z,57.37
2019-03-20T10:24:15.143Z,56.35
2019-03-20T10:25:15.139Z,54.45
2019-03-20T10:26:15.120Z,53.97
2019-03-20T10:27:15.104Z,53.59
2019-03-20T10:28:15.090Z,54.36
2019-03-20T10:29:15.076Z,54.45
2019-03-20T10:30:15.062Z,53.5
2019-03-20T10:31:15.048Z,52.84
2019-03-20T10:32:15.035Z,53.69
2019-03-20T10:33:16.567Z,56.07
2019-03-20T10:34:15.009Z,53.78
2019-03-20T10:35:14.752Z,52.36
2019-03-20T10:36:14.982Z,50.56
2019-03-20T10:37:14.968Z,50.74
2019-03-20T10:38:14.959Z,50.65
2019-03-20T10:39:15.111Z,50.46
2019-03-20T10:40:14.931Z,51.41
2019-03-20T10:41:14.917Z,50.74
2019-03-20T10:42:14.656Z,49.32
2019-03-20T10:43:14.903Z,47.89
2019-03-20T10:44:14.879Z,46.54
2019-03-20T10:45:14.861Z,46.64
2019-03-20T10:46:14.848Z,47.42
2019-03-20T10:47:14.839Z,46.56
2019-03-20T10:48:14.835Z,46.94
2019-03-20T10:49:14.809Z,48.46
2019-03-20T10:50:14.797Z,48.94
2019-03-20T10:51:14.781Z,47.3
2019-03-20T10:52:14.778Z,47.97
2019-03-20T10:53:14.773Z,49.87
2019-03-20T10:54:16.557Z,50.24
2019-03-20T10:55:14.741Z,50.24
2019-03-20T10:56:14.717Z,50.08
2019-03-20T10:57:14.713Z,52.55
2019-03-20T10:58:14.725Z,53.59
2019-03-20T10:59:14.675Z,54.74
2019-03-20T11:00:14.678Z,55.52
2019-03-20T11:01:14.651Z,54.86
2019-03-20T11:02:14.645Z,52.2
2019-03-20T11:03:14.647Z,50.58
2019-03-20T11:04:14.610Z,50.39
2019-03-20T11:05:14.599Z,51.25
2019-03-20T11:06:14.579Z,50.48
2019-03-20T11:07:14.579Z,49.63
2019-03-20T11:08:15.583Z,48.77
2019-03-20T11:09:20.921Z,49.15
2019-03-20T11:10:14.528Z,48.21
2019-03-20T11:11:14.528Z,47.89
2019-03-20T11:12:14.507Z,46.56
2019-03-20T11:13:14.251Z,46.85
2019-03-20T11:14:14.478Z,47.04
2019-03-20T11:15:14.463Z,46.47
2019-03-20T11:16:14.458Z,45.33
2019-03-20T11:17:14.436Z,46.37
2019-03-20T11:18:14.424Z,46.56
2019-03-20T11:19:14.411Z,48.37
2019-03-20T11:20:14.436Z,46.94
2019-03-20T11:21:14.385Z,45.73
2019-03-20T11:22:21.314Z,46.11
2019-03-20T11:23:14.360Z,46.01
2019-03-20T11:24:15.344Z,46.2
2019-03-20T11:25:14.335Z,44.21
2019-03-20T11:26:14.080Z,42.12
2019-03-20T11:27:14.306Z,45.26
2019-03-20T11:28:14.304Z,49.44
2019-03-20T11:29:14.284Z,47.06
2019-03-20T11:30:14.323Z,46.49
2019-03-20T11:31:14.285Z,46.01
2019-03-20T11:32:16.803Z,45.83
2019-03-20T11:33:14.229Z,45.54
2019-03-20T11:34:14.223Z,45.83
2019-03-20T11:35:14.204Z,45.92
2019-03-20T11:36:14.191Z,46.01
2019-03-20T11:37:14.230Z,43.35
2019-03-20T11:38:14.165Z,43.07
2019-03-20T11:39:14.152Z,43.26
2019-03-20T11:40:14.140Z,42.6
2019-03-20T11:41:14.142Z,42.4
2019-03-20T11:42:14.119Z,43.16
2019-03-20T11:43:14.100Z,42.4
2019-03-20T11:44:14.085Z,42.12
2019-03-20T11:45:14.074Z,42.02
2019-03-20T11:46:14.061Z,40.69
2019-03-20T11:47:14.048Z,41.17
2019-03-20T11:48:14.038Z,41.83
2019-03-20T11:49:14.024Z,43.26
2019-03-20T11:50:14.013Z,43.45
2019-03-20T11:51:13.999Z,43.93
2019-03-20T11:52:13.989Z,46.49
2019-03-20T11:53:13.980Z,48.77
2019-03-20T11:54:13.966Z,47.92
2019-03-20T11:55:13.949Z,45.54
2019-03-20T11:56:13.936Z,44.02
2019-03-20T11:57:13.922Z,43.26
2019-03-20T11:58:13.915Z,43.64
2019-03-20T11:59:13.896Z,44.68
2019-03-20T12:00:13.888Z,45.35
2019-03-20T12:01:13.871Z,45.35
2019-03-20T12:02:13.612Z,45.35
2019-03-20T12:03:13.607Z,45.26
2019-03-20T12:04:13.838Z,47.16
2019-03-20T12:05:13.820Z,47.85
2019-03-20T12:06:13.811Z,46.89
2019-03-20T12:07:13.799Z,47.28
2019-03-20T12:08:13.818Z,47.82
2019-03-20T12:09:13.773Z,46.78
2019-03-20T12:10:13.760Z,46.11
2019-03-20T12:11:15.823Z,47.92
2019-03-20T12:12:13.733Z,48.01
2019-03-20T12:13:13.720Z,46.97
2019-03-20T12:14:13.711Z,46.8
2019-03-20T12:15:13.450Z,45.83
2019-03-20T12:16:13.686Z,46.59
2019-03-20T12:17:13.675Z,47.16
2019-03-20T12:18:13.416Z,47.54
2019-03-20T12:19:13.647Z,46.59
2019-03-20T12:20:13.633Z,46.11
2019-03-20T12:21:13.626Z,45.95
2019-03-20T12:22:13.618Z,45.28
2019-03-20T12:23:13.598Z,46.11
2019-03-20T12:24:13.585Z,45.54
2019-03-20T12:25:13.571Z,46.01
2019-03-20T12:26:13.559Z,47.25
2019-03-20T12:27:17.884Z,45.45
2019-03-20T12:28:13.543Z,45.26
2019-03-20T12:29:13.531Z,44.68
2019-03-20T12:30:13.516Z,43.26
2019-03-20T12:31:13.497Z,43.26
2019-03-20T12:32:13.484Z,42.69
2019-03-20T12:33:13.827Z,42.6
2019-03-20T12:34:13.458Z,42.4
2019-03-20T12:35:13.447Z,43.16
2019-03-20T12:36:13.434Z,44.31
2019-03-20T12:37:13.180Z,45.26
2019-03-20T12:38:17.469Z,45.26
2019-03-20T12:39:13.395Z,44.21
2019-03-20T12:40:13.384Z,44.4
2019-03-20T12:41:13.383Z,44.12
2019-03-20T12:42:13.362Z,44.12
2019-03-20T12:43:13.350Z,43.83
2019-03-20T12:44:13.348Z,44.49
2019-03-20T12:45:13.324Z,43.35
2019-03-20T12:46:13.312Z,44.12
2019-03-20T12:47:13.298Z,44.68
2019-03-20T12:48:13.057Z,44.78
2019-03-20T12:49:13.274Z,43.26
2019-03-20T12:50:13.259Z,43.64
2019-03-20T12:51:13.250Z,43.73
2019-03-20T12:52:13.240Z,45.16
2019-03-20T12:53:12.979Z,45.64
2019-03-20T12:54:13.222Z,45.26
2019-03-20T12:55:13.203Z,45.54
2019-03-20T12:56:13.187Z,44.12
2019-03-20T12:57:13.174Z,43.93
2019-03-20T12:58:13.164Z,45.07
2019-03-20T12:59:13.154Z,45.64
2019-03-20T13:00:13.353Z,45.45
2019-03-20T13:01:13.126Z,45.64
2019-03-20T13:02:13.118Z,46.11